Search for airport 
image banner adimage banner adimage banner ad
image banner ad

CA84 - Torrey Pines

Located in San Diego, United States

ICAO - CA84, IATA -

Data provided by Airmate  

General information

Coordinates: N32°53'23" W117°14'49"
Elevation is 372 feet MSL.
Magnetic variation is 13° East
View others Airports in California

Operational data

Special qualification required
Current time UTC:
Current local time:
Weather at : KNKX - Miramar Mcas ( 10 km )
METAR: KNKX 211055Z 00000KT 10SM OVC008 17/14 A2993 RMK AO2 SLP130 T01670139 $
TAF: TAF KNKX 2109/2209 VRB05KT 9999 OVC010 520009 520903 QNH2991INS TEMPO 2110/2114 4800 BR VV003 FM211730 29010KT 9999 SKC 520009 520903 QNH2991INS BECMG 2202/2204 30005KT 9999 OVC012 QNH2992INS TEMPO 2204/2209 3200 BR VV002 T14/2114Z T27/2121Z
View NOTAMs / SUP AIP / TFR affecting this airport [VIEW]
Communications frequencies: [VIEW]

Runways:

RWY identifierQFULength (ft)Width (ft)SurfaceLDA (ft)
09150030ASPH
27150030ASPH

Airport contact information

Address: San Diego United States

Satellite view of CA84